createdAt,value
2018-05-26T00:00:59.867Z,17.50
2018-05-26T00:03:33.977Z,17.50
2018-05-26T00:06:08.770Z,17.50
2018-05-26T00:08:42.445Z,17.50
2018-05-26T00:11:16.424Z,17.60
2018-05-26T00:13:50.254Z,17.60
2018-05-26T00:16:24.093Z,17.60
2018-05-26T00:18:58.774Z,17.60
2018-05-26T00:21:32.525Z,17.60
2018-05-26T00:24:07.252Z,17.60
2018-05-26T00:26:41.077Z,17.60
2018-05-26T00:29:14.833Z,17.70
2018-05-26T00:31:48.649Z,17.70
2018-05-26T00:34:22.601Z,17.70
2018-05-26T00:36:56.661Z,17.70
2018-05-26T00:39:32.054Z,17.90
2018-05-26T00:42:07.161Z,18.10
2018-05-26T00:44:42.330Z,18.10
2018-05-26T00:47:19.003Z,18.10
2018-05-26T00:49:54.517Z,18.10
2018-05-26T00:52:28.529Z,18.10
2018-05-26T00:55:03.291Z,18.10
2018-05-26T00:57:37.459Z,18.10
2018-05-26T01:00:11.619Z,18.00
2018-05-26T01:02:45.940Z,17.90
2018-05-26T01:05:24.042Z,18.00
2018-05-26T01:07:58.320Z,18.00
2018-05-26T01:10:33.913Z,17.90
2018-05-26T01:13:08.130Z,17.90
2018-05-26T01:15:42.644Z,17.90
2018-05-26T01:18:17.034Z,17.90
2018-05-26T01:20:51.278Z,18.00
2018-05-26T01:23:25.705Z,18.00
2018-05-26T01:28:40.280Z,18.00
2018-05-26T01:31:14.701Z,18.00
2018-05-26T01:33:48.818Z,18.00
2018-05-26T01:36:24.160Z,18.00
2018-05-26T01:38:59.224Z,18.00
2018-05-26T01:41:33.982Z,17.90
2018-05-26T01:44:08.341Z,17.90
2018-05-26T01:46:43.034Z,17.90
2018-05-26T01:49:17.797Z,17.90
2018-05-26T01:51:52.217Z,17.90
2018-05-26T01:54:26.334Z,17.90
2018-05-26T01:57:01.236Z,17.80
2018-05-26T01:59:36.298Z,17.80
2018-05-26T02:02:10.270Z,17.80
2018-05-26T02:04:44.526Z,17.70
2018-05-26T02:07:19.560Z,17.70
2018-05-26T02:09:53.571Z,17.70
2018-05-26T02:12:27.420Z,17.70
2018-05-26T02:15:01.611Z,17.70
2018-05-26T02:17:36.629Z,17.70
2018-05-26T02:20:10.918Z,17.70
2018-05-26T02:22:44.958Z,17.70
2018-05-26T02:25:19.694Z,17.70
2018-05-26T02:27:53.941Z,17.60
2018-05-26T02:30:29.040Z,17.50
2018-05-26T02:33:02.949Z,17.50
2018-05-26T02:35:36.961Z,17.50
2018-05-26T02:38:11.689Z,17.40
2018-05-26T02:40:45.544Z,17.40
2018-05-26T02:43:19.782Z,17.40
2018-05-26T02:45:53.822Z,17.40
2018-05-26T02:48:28.040Z,17.50
2018-05-26T02:51:02.973Z,17.60
2018-05-26T02:53:37.394Z,17.60
2018-05-26T02:56:12.632Z,17.60
2018-05-26T02:58:46.643Z,17.60
2018-05-26T03:01:21.371Z,17.60
2018-05-26T03:03:55.203Z,17.50
2018-05-26T03:06:34.845Z,17.50
2018-05-26T03:09:15.491Z,17.50
2018-05-26T03:11:55.497Z,17.50
2018-05-26T03:14:35.363Z,17.70
2018-05-26T03:17:12.574Z,17.70
2018-05-26T03:19:46.793Z,17.60
2018-05-26T03:22:21.723Z,17.60
2018-05-26T03:24:56.042Z,17.60
2018-05-26T03:27:30.258Z,17.60
2018-05-26T03:30:05.088Z,17.50
2018-05-26T03:32:39.282Z,17.50
2018-05-26T03:35:14.186Z,17.50
2018-05-26T03:37:48.655Z,17.50
2018-05-26T03:40:22.670Z,17.50
2018-05-26T03:42:57.185Z,17.40
2018-05-26T03:45:31.502Z,17.40
2018-05-26T03:48:06.710Z,17.40
2018-05-26T03:50:42.033Z,17.40
2018-05-26T03:53:17.236Z,17.40
2018-05-26T03:56:03.436Z,17.40
2018-05-26T03:58:49.521Z,17.40
2018-05-26T04:01:23.901Z,17.50
2018-05-26T04:03:58.337Z,17.50
2018-05-26T04:06:32.402Z,17.60
2018-05-26T04:09:06.540Z,17.60
2018-05-26T04:11:40.708Z,17.60
2018-05-26T04:14:14.916Z,17.60
2018-05-26T04:16:50.365Z,17.60
2018-05-26T04:19:24.751Z,17.60
2018-05-26T04:21:58.761Z,17.60
2018-05-26T04:24:33.633Z,17.80
2018-05-26T04:27:08.149Z,17.80
2018-05-26T04:29:43.246Z,17.80
2018-05-26T04:32:18.320Z,18.00
2018-05-26T04:34:52.493Z,18.00
2018-05-26T04:37:26.649Z,18.00
2018-05-26T04:40:01.177Z,18.00
2018-05-26T04:42:35.246Z,18.10
2018-05-26T04:45:09.299Z,18.20
2018-05-26T04:47:43.461Z,18.20
2018-05-26T04:50:19.306Z,18.30
2018-05-26T04:52:53.436Z,18.30
2018-05-26T04:55:27.539Z,18.30
2018-05-26T04:58:02.263Z,18.40
2018-05-26T05:00:37.505Z,18.50
2018-05-26T05:03:15.365Z,18.50
2018-05-26T05:06:15.625Z,18.60
2018-05-26T05:08:49.795Z,18.60
2018-05-26T05:11:25.020Z,18.70
2018-05-26T05:13:59.368Z,18.70
2018-05-26T05:16:33.682Z,18.60
2018-05-26T05:19:08.002Z,18.60
2018-05-26T05:21:42.216Z,18.50
2018-05-26T05:24:17.353Z,18.60
2018-05-26T05:26:52.495Z,18.60
2018-05-26T05:29:28.113Z,18.60
2018-05-26T05:32:02.046Z,18.50
2018-05-26T05:34:36.158Z,18.80
2018-05-26T05:37:10.483Z,18.80
2018-05-26T05:39:44.421Z,18.90
2018-05-26T05:42:19.277Z,18.80
2018-05-26T05:44:54.155Z,18.80
2018-05-26T05:47:28.217Z,19.00
2018-05-26T05:50:02.183Z,19.20
2018-05-26T05:52:36.117Z,19.40
2018-05-26T05:55:11.037Z,19.70
2018-05-26T05:57:44.932Z,19.70
2018-05-26T06:00:18.838Z,19.90
2018-05-26T06:02:52.793Z,20.10
2018-05-26T06:05:27.568Z,20.40
2018-05-26T06:08:01.740Z,20.40
2018-05-26T06:10:35.561Z,20.50
2018-05-26T06:13:09.403Z,20.70
2018-05-26T06:15:43.957Z,21.00
2018-05-26T06:18:17.886Z,21.00
2018-05-26T06:20:52.444Z,21.00
2018-05-26T06:23:26.316Z,21.00
2018-05-26T06:26:00.568Z,21.10
2018-05-26T06:28:34.697Z,21.20
2018-05-26T06:31:08.730Z,21.30
2018-05-26T06:33:42.569Z,21.50
2018-05-26T06:36:17.861Z,22.20
2018-05-26T06:38:51.942Z,22.10
2018-05-26T06:41:25.763Z,22.40
2018-05-26T06:43:59.588Z,22.40
2018-05-26T06:46:33.532Z,22.50
2018-05-26T06:49:08.413Z,22.80
2018-05-26T06:51:43.113Z,23.00
2018-05-26T06:54:17.127Z,23.00
2018-05-26T06:56:51.064Z,22.90
2018-05-26T06:59:24.973Z,22.90
2018-05-26T07:01:59.574Z,23.40
2018-05-26T07:04:34.198Z,23.70
2018-05-26T07:07:08.221Z,23.60
2018-05-26T07:09:42.146Z,23.70
2018-05-26T07:12:16.053Z,24.00
2018-05-26T07:14:49.909Z,24.10
2018-05-26T07:17:23.713Z,24.50
2018-05-26T07:19:57.582Z,24.80
2018-05-26T07:22:31.360Z,24.80
2018-05-26T07:25:06.222Z,25.00
2018-05-26T07:27:40.178Z,25.00
2018-05-26T07:30:14.112Z,25.10
2018-05-26T07:32:47.896Z,25.10
2018-05-26T07:35:21.686Z,25.00
2018-05-26T07:37:55.591Z,25.30
2018-05-26T07:40:29.569Z,25.60
2018-05-26T07:43:03.581Z,26.00
2018-05-26T07:45:37.378Z,26.00
2018-05-26T07:48:12.103Z,26.70
2018-05-26T07:50:46.918Z,26.70
2018-05-26T07:53:20.827Z,27.30
2018-05-26T07:55:54.703Z,27.50
2018-05-26T07:58:29.231Z,27.70
2018-05-26T08:01:03.120Z,27.70
2018-05-26T08:03:37.047Z,28.00
2018-05-26T08:06:12.242Z,28.30
2018-05-26T08:08:46.209Z,28.20
2018-05-26T08:11:20.815Z,29.10
2018-05-26T08:13:54.741Z,29.00
2018-05-26T08:16:28.575Z,29.50
2018-05-26T08:19:03.190Z,30.10
2018-05-26T08:21:36.986Z,30.00
2018-05-26T08:24:10.893Z,30.20
2018-05-26T08:26:45.516Z,30.70
2018-05-26T08:29:19.428Z,30.60
2018-05-26T08:31:53.365Z,30.70
2018-05-26T08:34:27.483Z,30.20
2018-05-26T08:37:01.353Z,30.20
2018-05-26T08:39:35.987Z,29.90
2018-05-26T08:42:09.797Z,29.90
2018-05-26T08:44:44.496Z,31.10
2018-05-26T08:47:18.397Z,31.10
2018-05-26T08:49:52.204Z,31.10
2018-05-26T08:52:26.037Z,30.60
2018-05-26T08:55:00.699Z,31.70
2018-05-26T08:57:34.428Z,31.70
2018-05-26T09:00:09.677Z,32.80
2018-05-26T09:02:43.477Z,32.70
2018-05-26T09:05:17.179Z,32.90
2018-05-26T09:07:51.012Z,32.80
2018-05-26T09:10:25.624Z,33.10
2018-05-26T09:12:59.326Z,33.10
2018-05-26T09:15:33.024Z,32.70
2018-05-26T09:18:07.758Z,33.10
2018-05-26T09:20:41.543Z,33.60
2018-05-26T09:23:15.367Z,34.00
2018-05-26T09:25:50.041Z,34.20
2018-05-26T09:28:23.837Z,34.20
2018-05-26T09:30:57.661Z,34.00
2018-05-26T09:33:31.514Z,34.60
2018-05-26T09:36:05.284Z,34.70
2018-05-26T09:38:39.168Z,35.30
2018-05-26T09:41:12.944Z,35.40
2018-05-26T09:43:46.724Z,35.40
2018-05-26T09:46:20.559Z,36.00
2018-05-26T09:48:54.373Z,35.30
2018-05-26T09:51:28.138Z,34.50
2018-05-26T09:54:01.993Z,34.20
2018-05-26T09:56:35.737Z,33.80
2018-05-26T09:59:09.537Z,34.10
2018-05-26T10:01:43.350Z,34.00
2018-05-26T10:04:16.998Z,34.00
2018-05-26T10:06:50.984Z,33.50
2018-05-26T10:09:24.651Z,34.20
2018-05-26T10:11:58.405Z,34.30
2018-05-26T10:14:32.133Z,33.30
2018-05-26T10:17:06.876Z,34.40
2018-05-26T10:19:40.763Z,34.40
2018-05-26T10:22:15.325Z,35.60
2018-05-26T10:24:49.197Z,35.50
2018-05-26T10:27:23.791Z,36.60
2018-05-26T10:29:57.559Z,36.60
2018-05-26T10:32:31.410Z,36.60
2018-05-26T10:35:05.122Z,37.40
2018-05-26T10:37:39.077Z,36.80
2018-05-26T10:40:14.283Z,36.90
2018-05-26T10:42:48.933Z,37.10
2018-05-26T10:45:34.653Z,37.00
2018-05-26T10:48:08.739Z,35.90
2018-05-26T10:50:42.602Z,36.80
2018-05-26T10:53:17.644Z,37.10
2018-05-26T10:55:51.594Z,37.00
2018-05-26T10:58:25.497Z,36.40
2018-05-26T11:01:00.806Z,37.10
2018-05-26T11:03:34.715Z,37.10
2018-05-26T11:06:08.535Z,36.40
2018-05-26T11:08:43.147Z,37.70
2018-05-26T11:11:18.046Z,36.40
2018-05-26T11:13:51.909Z,36.40
2018-05-26T11:16:25.692Z,36.90
2018-05-26T11:18:59.473Z,37.30
2018-05-26T11:21:33.221Z,37.80
2018-05-26T11:24:07.338Z,38.30
2018-05-26T11:26:40.910Z,38.40
2018-05-26T11:29:15.434Z,38.90
2018-05-26T11:31:49.194Z,38.90
2018-05-26T11:34:23.059Z,39.30
2018-05-26T11:36:57.500Z,39.50
2018-05-26T11:39:31.170Z,39.50
2018-05-26T11:42:04.866Z,36.50
2018-05-26T11:44:38.593Z,37.40
2018-05-26T11:47:12.400Z,37.60
2018-05-26T11:49:47.000Z,37.80
2018-05-26T11:52:20.942Z,37.80
2018-05-26T11:54:55.298Z,38.10
2018-05-26T11:57:29.122Z,38.10
2018-05-26T12:00:02.866Z,38.00
2018-05-26T12:02:36.637Z,38.00
2018-05-26T12:05:10.367Z,37.10
2018-05-26T12:07:44.921Z,38.40
2018-05-26T12:10:18.739Z,38.40
2018-05-26T12:12:52.592Z,37.10
2018-05-26T12:15:26.949Z,37.00
2018-05-26T12:18:00.688Z,36.60
2018-05-26T12:20:35.298Z,37.50
2018-05-26T12:23:08.960Z,37.50
2018-05-26T12:25:42.721Z,37.40
2018-05-26T12:28:17.863Z,39.00
2018-05-26T12:30:51.599Z,39.00
2018-05-26T12:33:25.247Z,38.50
2018-05-26T12:35:59.072Z,38.70
2018-05-26T12:38:33.664Z,38.40
2018-05-26T12:41:07.411Z,38.30
2018-05-26T12:43:41.099Z,37.40
2018-05-26T12:46:14.922Z,37.60
2018-05-26T12:48:49.436Z,38.60
2018-05-26T12:51:23.229Z,38.60
2018-05-26T12:53:57.835Z,39.50
2018-05-26T12:56:31.937Z,39.50
2018-05-26T12:59:05.576Z,38.50
2018-05-26T13:01:39.418Z,38.20
2018-05-26T13:04:13.220Z,39.50
2018-05-26T13:06:47.793Z,38.50
2018-05-26T13:09:21.634Z,38.50
2018-05-26T13:11:55.362Z,38.20
2018-05-26T13:14:29.112Z,37.90
2018-05-26T13:17:03.728Z,37.00
2018-05-26T13:19:37.522Z,36.90
2018-05-26T13:22:11.240Z,36.10
2018-05-26T13:24:44.873Z,36.70
2018-05-26T13:27:18.654Z,36.10
2018-05-26T13:29:53.224Z,35.70
2018-05-26T13:32:27.038Z,35.70
2018-05-26T13:35:01.446Z,35.10
2018-05-26T13:37:35.266Z,35.10
2018-05-26T13:40:08.951Z,35.30
2018-05-26T13:42:42.792Z,35.20
2018-05-26T13:45:16.599Z,35.90
2018-05-26T13:47:51.201Z,34.90
2018-05-26T13:50:25.631Z,34.60
2018-05-26T13:52:59.370Z,34.50
2018-05-26T13:55:33.990Z,35.10
2018-05-26T13:58:08.369Z,35.10
2018-05-26T14:00:42.767Z,34.60
2018-05-26T14:03:16.598Z,34.60
2018-05-26T14:05:50.385Z,34.10
2018-05-26T14:08:24.165Z,34.30
2018-05-26T14:10:58.075Z,33.80
2018-05-26T14:13:31.872Z,33.50
2018-05-26T14:16:05.734Z,33.30
2018-05-26T14:18:39.553Z,33.40
2018-05-26T14:21:14.239Z,33.30
2018-05-26T14:23:47.993Z,33.20
2018-05-26T14:26:21.675Z,32.90
2018-05-26T14:28:55.540Z,32.20
2018-05-26T14:31:29.369Z,32.20
2018-05-26T14:34:03.163Z,32.10
2018-05-26T14:36:37.706Z,32.50
2018-05-26T14:39:11.388Z,32.50
2018-05-26T14:41:45.214Z,32.60
2018-05-26T14:44:19.035Z,32.60
2018-05-26T14:46:53.605Z,31.90
2018-05-26T14:49:27.293Z,31.90
2018-05-26T14:52:01.145Z,31.70
2018-05-26T14:54:34.796Z,31.50
2018-05-26T14:57:08.631Z,31.90
2018-05-26T14:59:42.442Z,31.90
2018-05-26T15:02:16.263Z,31.40
2018-05-26T15:04:50.062Z,31.10
2018-05-26T15:07:24.015Z,31.60
2018-05-26T15:09:58.464Z,32.10
2018-05-26T15:12:32.203Z,32.10
2018-05-26T15:15:05.943Z,32.10
2018-05-26T15:17:39.707Z,31.90
2018-05-26T15:20:14.307Z,31.60
2018-05-26T15:22:48.007Z,31.60
2018-05-26T15:25:21.810Z,31.90
2018-05-26T15:27:55.621Z,32.00
2018-05-26T15:30:29.435Z,32.10
2018-05-26T15:33:03.261Z,32.00
2018-05-26T15:35:37.062Z,31.80
2018-05-26T15:38:11.554Z,31.40
2018-05-26T15:40:45.237Z,31.40
2018-05-26T15:43:19.772Z,31.30
2018-05-26T15:45:54.350Z,31.30
2018-05-26T15:48:28.092Z,31.30
2018-05-26T15:51:01.934Z,30.90
2018-05-26T15:53:35.834Z,30.90
2018-05-26T15:56:09.638Z,30.70
2018-05-26T15:58:43.459Z,30.60
2018-05-26T16:01:18.116Z,30.00
2018-05-26T16:03:51.835Z,30.00
2018-05-26T16:06:25.670Z,30.40
2018-05-26T16:09:00.184Z,30.50
2018-05-26T16:11:34.647Z,30.30
2018-05-26T16:14:08.337Z,30.30
2018-05-26T16:16:42.263Z,30.20
2018-05-26T16:19:16.811Z,30.20
2018-05-26T16:21:51.379Z,30.30
2018-05-26T16:24:25.200Z,30.20
2018-05-26T16:26:59.050Z,30.10
2018-05-26T16:29:32.988Z,30.00
2018-05-26T16:32:06.602Z,29.80
2018-05-26T16:34:40.443Z,30.00
2018-05-26T16:37:14.338Z,30.00
2018-05-26T16:39:48.661Z,30.00
2018-05-26T16:42:22.518Z,30.00
2018-05-26T16:44:56.302Z,29.90
2018-05-26T16:47:30.155Z,29.90
2018-05-26T16:50:03.978Z,29.90
2018-05-26T16:52:37.671Z,29.80
2018-05-26T16:55:11.475Z,29.60
2018-05-26T16:57:45.125Z,29.30
2018-05-26T17:00:18.926Z,29.20
2018-05-26T17:02:53.623Z,29.20
2018-05-26T17:05:27.455Z,29.10
2018-05-26T17:08:01.265Z,29.10
2018-05-26T17:10:35.116Z,29.00
2018-05-26T17:13:09.015Z,28.90
2018-05-26T17:15:42.807Z,28.90
2018-05-26T17:18:16.563Z,28.80
2018-05-26T17:20:50.378Z,28.70
2018-05-26T17:23:24.126Z,28.80
2018-05-26T17:25:58.739Z,28.60
2018-05-26T17:28:32.532Z,28.60
2018-05-26T17:31:06.352Z,28.60
2018-05-26T17:33:40.092Z,28.70
2018-05-26T17:36:13.827Z,28.60
2018-05-26T17:38:47.536Z,28.60
2018-05-26T17:41:21.395Z,28.40
2018-05-26T17:43:55.193Z,28.30
2018-05-26T17:46:29.029Z,28.30
2018-05-26T17:49:02.859Z,28.30
2018-05-26T17:51:36.669Z,28.30
2018-05-26T17:54:10.621Z,28.30
2018-05-26T17:56:44.350Z,28.20
2018-05-26T17:59:18.068Z,28.30
2018-05-26T18:01:51.893Z,28.20
2018-05-26T18:04:26.303Z,28.20
2018-05-26T18:07:00.002Z,28.20
2018-05-26T18:09:33.864Z,28.20
2018-05-26T18:12:07.697Z,28.10
2018-05-26T18:14:41.524Z,28.00
2018-05-26T18:17:15.318Z,27.90
2018-05-26T18:19:49.119Z,27.90
2018-05-26T18:22:22.961Z,27.90
2018-05-26T18:24:57.545Z,27.80
2018-05-26T18:27:31.282Z,27.80
2018-05-26T18:30:04.965Z,27.70
2018-05-26T18:32:39.561Z,27.60
2018-05-26T18:35:13.273Z,27.60
2018-05-26T18:37:47.084Z,27.60
2018-05-26T18:40:20.912Z,27.50
2018-05-26T18:42:54.694Z,27.50
2018-05-26T18:45:28.538Z,27.40
2018-05-26T18:48:03.176Z,27.30
2018-05-26T18:50:37.068Z,27.30
2018-05-26T18:53:10.778Z,27.20
2018-05-26T18:55:44.798Z,27.10
2018-05-26T18:58:18.545Z,27.10
2018-05-26T19:00:52.388Z,27.10
2018-05-26T19:03:26.349Z,27.00
2018-05-26T19:06:00.286Z,27.00
2018-05-26T19:08:34.180Z,26.90
2018-05-26T19:11:07.999Z,26.90
2018-05-26T19:13:41.859Z,26.80
2018-05-26T19:16:15.800Z,26.70
2018-05-26T19:18:49.594Z,26.60
2018-05-26T19:21:23.313Z,26.60
2018-05-26T19:23:57.279Z,26.60
2018-05-26T19:26:31.873Z,26.40
2018-05-26T19:29:06.347Z,26.30
2018-05-26T19:31:40.456Z,26.20
2018-05-26T19:34:14.350Z,26.10
2018-05-26T19:36:48.275Z,26.00
2018-05-26T19:39:22.800Z,25.90
2018-05-26T19:41:56.492Z,25.90
2018-05-26T19:44:30.403Z,25.80
2018-05-26T19:47:05.120Z,25.70
2018-05-26T19:49:40.252Z,25.60
2018-05-26T19:52:15.298Z,25.60
2018-05-26T19:54:48.934Z,25.50
2018-05-26T19:57:22.738Z,25.50
2018-05-26T19:59:57.355Z,25.40
2018-05-26T20:02:31.355Z,25.40
2018-05-26T20:05:05.173Z,25.30
2018-05-26T20:07:38.913Z,25.20
2018-05-26T20:10:12.645Z,25.20
2018-05-26T20:12:47.282Z,25.10
2018-05-26T20:15:21.619Z,25.10
2018-05-26T20:17:55.477Z,25.00
2018-05-26T20:20:29.592Z,25.00
2018-05-26T20:23:03.655Z,25.00
2018-05-26T20:25:37.413Z,25.00
2018-05-26T20:28:11.368Z,24.90
2018-05-26T20:30:45.252Z,24.80
2018-05-26T20:33:19.972Z,24.70
2018-05-26T20:35:53.804Z,24.70
2018-05-26T20:38:27.613Z,24.70
2018-05-26T20:41:03.010Z,24.60
2018-05-26T20:43:36.752Z,24.60
2018-05-26T20:46:10.599Z,24.50
2018-05-26T20:48:44.291Z,24.50
2018-05-26T20:51:18.169Z,24.40
2018-05-26T20:53:51.850Z,24.30
2018-05-26T20:56:26.532Z,24.20
2018-05-26T20:59:00.440Z,24.20
2018-05-26T21:01:34.915Z,24.20
2018-05-26T21:04:08.705Z,24.20
2018-05-26T21:06:42.499Z,24.10
2018-05-26T21:09:16.312Z,24.00
2018-05-26T21:11:50.981Z,23.90
2018-05-26T21:14:24.789Z,23.90
2018-05-26T21:16:58.508Z,23.80
2018-05-26T21:19:32.322Z,23.80
2018-05-26T21:22:05.992Z,23.80
2018-05-26T21:24:39.831Z,23.80
2018-05-26T21:27:13.573Z,23.70
2018-05-26T21:29:47.388Z,23.70
2018-05-26T21:32:21.186Z,23.70
2018-05-26T21:34:54.994Z,23.60
2018-05-26T21:37:28.830Z,23.60
2018-05-26T21:40:02.732Z,23.60
2018-05-26T21:42:37.363Z,23.60
2018-05-26T21:45:11.091Z,23.60
2018-05-26T21:47:44.838Z,23.60
2018-05-26T21:50:18.559Z,23.50
2018-05-26T21:52:52.386Z,23.50
2018-05-26T21:55:26.450Z,23.50
2018-05-26T21:58:00.382Z,23.50
2018-05-26T22:00:34.074Z,23.50
2018-05-26T22:03:07.972Z,23.50
2018-05-26T22:05:41.762Z,23.30
2018-05-26T22:08:15.424Z,23.30
2018-05-26T22:10:49.208Z,23.20
2018-05-26T22:13:23.121Z,23.30
2018-05-26T22:15:57.733Z,23.20
2018-05-26T22:18:31.446Z,23.20
2018-05-26T22:21:05.582Z,23.10
2018-05-26T22:23:39.452Z,23.00
2018-05-26T22:26:13.439Z,23.00
2018-05-26T22:28:48.236Z,23.10
2018-05-26T22:31:22.020Z,23.20
2018-05-26T22:33:56.593Z,23.10
2018-05-26T22:36:30.230Z,23.10
2018-05-26T22:39:04.617Z,23.00
2018-05-26T22:41:38.519Z,23.00
2018-05-26T22:44:12.289Z,22.90
2018-05-26T22:46:46.117Z,22.90
2018-05-26T22:49:19.821Z,22.90
2018-05-26T22:51:54.522Z,22.80
2018-05-26T22:54:28.377Z,22.70
2018-05-26T22:57:02.333Z,22.70
2018-05-26T22:59:36.182Z,22.60
2018-05-26T23:02:10.123Z,22.60
2018-05-26T23:04:43.870Z,22.50
2018-05-26T23:07:18.467Z,22.40
2018-05-26T23:09:52.467Z,22.40
2018-05-26T23:12:26.475Z,22.30
2018-05-26T23:15:00.497Z,22.20
2018-05-26T23:17:34.451Z,22.20
2018-05-26T23:20:09.224Z,22.00
2018-05-26T23:22:43.121Z,22.00
2018-05-26T23:25:17.164Z,21.90
2018-05-26T23:27:51.199Z,22.00
2018-05-26T23:30:25.880Z,21.70
2018-05-26T23:32:59.679Z,21.70
2018-05-26T23:35:33.621Z,21.70
2018-05-26T23:38:07.349Z,21.80
2018-05-26T23:40:41.401Z,21.70
2018-05-26T23:43:16.089Z,21.60
2018-05-26T23:45:50.341Z,21.50
2018-05-26T23:48:24.362Z,21.50
2018-05-26T23:50:58.430Z,21.40
2018-05-26T23:53:32.237Z,21.30
2018-05-26T23:56:06.199Z,21.30
2018-05-26T23:58:40.088Z,21.30
